sensor_id;sensor_type;location;lat;lon;timestamp;pressure;altitude;pressure_sealevel;temperature;humidity
63343;BME280;49465;57.664;39.686;2023-05-17T00:00:31;101175.72;;;13.53;42.83
63343;BME280;49465;57.664;39.686;2023-05-17T00:03:00;101176.22;;;13.31;44.32
63343;BME280;49465;57.664;39.686;2023-05-17T00:05:30;101178.16;;;13.13;44.08
63343;BME280;49465;57.664;39.686;2023-05-17T00:08:04;101179.38;;;13.08;44.57
63343;BME280;49465;57.664;39.686;2023-05-17T00:10:36;101174.38;;;13.03;44.55
63343;BME280;49465;57.664;39.686;2023-05-17T00:13:08;101186.22;;;13.10;44.58
63343;BME280;49465;57.664;39.686;2023-05-17T00:15:40;101181.13;;;13.07;44.46
63343;BME280;49465;57.664;39.686;2023-05-17T00:18:07;101190.25;;;12.87;44.87
63343;BME280;49465;57.664;39.686;2023-05-17T00:20:36;101195.88;;;12.95;45.10
63343;BME280;49465;57.664;39.686;2023-05-17T00:23:09;101190.78;;;12.78;44.83
63343;BME280;49465;57.664;39.686;2023-05-17T00:25:41;101194.53;;;12.74;44.71
63343;BME280;49465;57.664;39.686;2023-05-17T00:28:12;101197.47;;;12.83;44.75
63343;BME280;49465;57.664;39.686;2023-05-17T00:30:42;101188.06;;;12.79;45.43
63343;BME280;49465;57.664;39.686;2023-05-17T00:33:12;101191.88;;;12.59;45.04
63343;BME280;49465;57.664;39.686;2023-05-17T00:35:43;101200.06;;;12.55;45.13
63343;BME280;49465;57.664;39.686;2023-05-17T00:38:15;101198.66;;;12.63;45.39
63343;BME280;49465;57.664;39.686;2023-05-17T00:40:48;101198.88;;;12.44;45.39
63343;BME280;49465;57.664;39.686;2023-05-17T00:43:17;101208.03;;;12.53;45.17
63343;BME280;49465;57.664;39.686;2023-05-17T00:45:50;101207.28;;;12.51;45.40
63343;BME280;49465;57.664;39.686;2023-05-17T00:48:19;101206.59;;;12.48;44.89
63343;BME280;49465;57.664;39.686;2023-05-17T00:50:51;101195.47;;;12.42;45.87
63343;BME280;49465;57.664;39.686;2023-05-17T00:53:26;101204.81;;;12.48;45.06
63343;BME280;49465;57.664;39.686;2023-05-17T00:55:59;101210.69;;;12.37;46.15
63343;BME280;49465;57.664;39.686;2023-05-17T00:58:29;101208.41;;;12.31;45.43
63343;BME280;49465;57.664;39.686;2023-05-17T01:00:59;101212.16;;;12.27;45.24
63343;BME280;49465;57.664;39.686;2023-05-17T01:03:31;101211.47;;;12.23;45.79
63343;BME280;49465;57.664;39.686;2023-05-17T01:06:07;101207.09;;;12.08;45.24
63343;BME280;49465;57.664;39.686;2023-05-17T01:08:42;101211.84;;;12.17;45.47
63343;BME280;49465;57.664;39.686;2023-05-17T01:17:06;101216.91;;;12.20;45.17
63343;BME280;49465;57.664;39.686;2023-05-17T01:22:35;101209.16;;;11.85;45.80
63343;BME280;49465;57.664;39.686;2023-05-17T01:27:41;101222.16;;;11.88;45.59
63343;BME280;49465;57.664;39.686;2023-05-17T01:30:18;101219.53;;;11.88;46.11
63343;BME280;49465;57.664;39.686;2023-05-17T01:32:47;101222.31;;;11.85;46.06
63343;BME280;49465;57.664;39.686;2023-05-17T01:35:17;101214.69;;;11.81;46.17
63343;BME280;49465;57.664;39.686;2023-05-17T01:37:47;101217.31;;;11.81;46.43
63343;BME280;49465;57.664;39.686;2023-05-17T01:40:16;101210.44;;;11.62;45.68
63343;BME280;49465;57.664;39.686;2023-05-17T01:45:43;101221.50;;;12.01;44.40
63343;BME280;49465;57.664;39.686;2023-05-17T01:48:51;101221.13;;;11.75;46.63
63343;BME280;49465;57.664;39.686;2023-05-17T01:51:19;101223.75;;;11.75;45.75
63343;BME280;49465;57.664;39.686;2023-05-17T01:53:58;101207.28;;;11.72;46.60
63343;BME280;49465;57.664;39.686;2023-05-17T01:56:31;101219.50;;;11.57;46.91
63343;BME280;49465;57.664;39.686;2023-05-17T01:59:05;101216.34;;;11.66;47.16
63343;BME280;49465;57.664;39.686;2023-05-17T02:01:41;101220.84;;;11.64;47.92
63343;BME280;49465;57.664;39.686;2023-05-17T02:04:08;101218.13;;;11.50;46.82
63343;BME280;49465;57.664;39.686;2023-05-17T02:06:35;101213.78;;;11.48;47.26
63343;BME280;49465;57.664;39.686;2023-05-17T02:09:14;101218.22;;;11.80;47.20
63343;BME280;49465;57.664;39.686;2023-05-17T02:11:43;101213.63;;;11.52;47.82
63343;BME280;49465;57.664;39.686;2023-05-17T02:14:13;101218.31;;;11.62;48.24
63343;BME280;49465;57.664;39.686;2023-05-17T02:16:47;101218.22;;;11.64;48.29
63343;BME280;49465;57.664;39.686;2023-05-17T02:19:16;101218.06;;;11.67;48.49
63343;BME280;49465;57.664;39.686;2023-05-17T02:21:49;101216.19;;;11.69;49.16
63343;BME280;49465;57.664;39.686;2023-05-17T02:24:20;101224.00;;;11.71;49.22
63343;BME280;49465;57.664;39.686;2023-05-17T02:26:49;101223.75;;;11.75;49.49
63343;BME280;49465;57.664;39.686;2023-05-17T02:29:19;101224.16;;;11.67;49.75
63343;BME280;49465;57.664;39.686;2023-05-17T02:31:59;101224.69;;;11.74;49.45
63343;BME280;49465;57.664;39.686;2023-05-17T02:34:28;101232.25;;;11.80;48.82
63343;BME280;49465;57.664;39.686;2023-05-17T02:36:57;101224.16;;;11.83;50.12
63343;BME280;49465;57.664;39.686;2023-05-17T02:39:26;101238.28;;;11.98;50.59
63343;BME280;49465;57.664;39.686;2023-05-17T02:41:59;101236.16;;;12.05;51.13
63343;BME280;49465;57.664;39.686;2023-05-17T02:44:28;101235.81;;;12.11;51.33
63343;BME280;49465;57.664;39.686;2023-05-17T02:46:58;101237.94;;;12.20;51.30
63343;BME280;49465;57.664;39.686;2023-05-17T02:49:32;101240.28;;;12.25;52.15
63343;BME280;49465;57.664;39.686;2023-05-17T02:52:01;101239.97;;;12.31;52.49
63343;BME280;49465;57.664;39.686;2023-05-17T02:54:39;101238.41;;;12.59;51.67
63343;BME280;49465;57.664;39.686;2023-05-17T02:57:09;101241.97;;;12.42;52.27
63343;BME280;49465;57.664;39.686;2023-05-17T02:59:36;101243.34;;;12.49;52.08
63343;BME280;49465;57.664;39.686;2023-05-17T03:02:08;101242.78;;;12.58;52.13
63343;BME280;49465;57.664;39.686;2023-05-17T03:04:43;101249.44;;;12.80;53.05
63343;BME280;49465;57.664;39.686;2023-05-17T03:07:13;101242.81;;;12.89;53.47
63343;BME280;49465;57.664;39.686;2023-05-17T03:09:40;101246.28;;;12.89;52.83
63343;BME280;49465;57.664;39.686;2023-05-17T03:12:17;101248.31;;;13.29;52.32
63343;BME280;49465;57.664;39.686;2023-05-17T03:14:46;101246.72;;;13.26;52.41
63343;BME280;49465;57.664;39.686;2023-05-17T03:17:15;101240.41;;;13.29;51.43
63343;BME280;49465;57.664;39.686;2023-05-17T03:19:44;101245.72;;;13.43;51.42
63343;BME280;49465;57.664;39.686;2023-05-17T03:22:22;101252.09;;;13.82;52.81
63343;BME280;49465;57.664;39.686;2023-05-17T03:24:48;101248.25;;;13.73;51.43
63343;BME280;49465;57.664;39.686;2023-05-17T03:27:17;101247.72;;;13.95;49.78
63343;BME280;49465;57.664;39.686;2023-05-17T03:29:49;101248.06;;;14.18;50.00
63343;BME280;49465;57.664;39.686;2023-05-17T03:32:30;101243.97;;;14.27;50.08
63343;BME280;49465;57.664;39.686;2023-05-17T03:35:01;101245.28;;;14.34;49.16
63343;BME280;49465;57.664;39.686;2023-05-17T03:37:34;101250.31;;;14.51;49.37
63343;BME280;49465;57.664;39.686;2023-05-17T03:40:00;101250.16;;;14.67;48.35
63343;BME280;49465;57.664;39.686;2023-05-17T03:42:27;101245.66;;;14.82;47.71
63343;BME280;49465;57.664;39.686;2023-05-17T03:44:57;101248.03;;;14.99;47.86
63343;BME280;49465;57.664;39.686;2023-05-17T03:47:29;101250.69;;;15.25;46.76
63343;BME280;49465;57.664;39.686;2023-05-17T03:50:00;101253.84;;;15.43;47.02
63343;BME280;49465;57.664;39.686;2023-05-17T03:52:32;101253.59;;;15.59;46.97
63343;BME280;49465;57.664;39.686;2023-05-17T03:55:04;101260.16;;;15.79;46.19
63343;BME280;49465;57.664;39.686;2023-05-17T03:57:33;101265.00;;;15.98;46.16
63343;BME280;49465;57.664;39.686;2023-05-17T04:00:09;101265.22;;;16.19;46.21
63343;BME280;49465;57.664;39.686;2023-05-17T04:02:39;101260.41;;;16.37;45.65
63343;BME280;49465;57.664;39.686;2023-05-17T04:05:11;101268.69;;;16.56;46.27
63343;BME280;49465;57.664;39.686;2023-05-17T04:07:49;101262.56;;;16.67;45.44
63343;BME280;49465;57.664;39.686;2023-05-17T04:10:21;101264.63;;;16.88;45.57
63343;BME280;49465;57.664;39.686;2023-05-17T04:12:53;101264.78;;;17.09;44.71
63343;BME280;49465;57.664;39.686;2023-05-17T04:15:23;101273.84;;;17.40;44.38
63343;BME280;49465;57.664;39.686;2023-05-17T04:17:52;101267.84;;;17.61;44.44
63343;BME280;49465;57.664;39.686;2023-05-17T04:20:21;101271.09;;;17.75;44.19
63343;BME280;49465;57.664;39.686;2023-05-17T04:22:48;101275.56;;;17.97;44.35
63343;BME280;49465;57.664;39.686;2023-05-17T04:25:17;101263.22;;;18.19;44.16
63343;BME280;49465;57.664;39.686;2023-05-17T04:27:49;101267.34;;;18.44;43.30
63343;BME280;49465;57.664;39.686;2023-05-17T04:30:17;101276.91;;;18.68;43.18
63343;BME280;49465;57.664;39.686;2023-05-17T04:32:49;101266.09;;;18.92;43.27
63343;BME280;49465;57.664;39.686;2023-05-17T04:35:19;101266.78;;;19.15;43.09
63343;BME280;49465;57.664;39.686;2023-05-17T04:37:48;101264.69;;;19.40;43.09
63343;BME280;49465;57.664;39.686;2023-05-17T04:40:20;101268.19;;;19.71;42.37
63343;BME280;49465;57.664;39.686;2023-05-17T04:42:50;101273.19;;;19.95;41.37
63343;BME280;49465;57.664;39.686;2023-05-17T04:45:23;101269.88;;;20.12;41.58
63343;BME280;49465;57.664;39.686;2023-05-17T04:47:55;101270.34;;;20.37;40.84
63343;BME280;49465;57.664;39.686;2023-05-17T04:50:24;101272.59;;;20.51;40.78
63343;BME280;49465;57.664;39.686;2023-05-17T04:52:53;101276.97;;;20.82;40.30
63343;BME280;49465;57.664;39.686;2023-05-17T04:55:25;101277.34;;;20.97;40.33
63343;BME280;49465;57.664;39.686;2023-05-17T04:57:55;101277.84;;;21.29;39.73
63343;BME280;49465;57.664;39.686;2023-05-17T05:00:24;101279.50;;;21.40;38.75
63343;BME280;49465;57.664;39.686;2023-05-17T05:02:50;101278.63;;;21.59;38.38
63343;BME280;49465;57.664;39.686;2023-05-17T05:05:19;101271.22;;;21.81;39.04
63343;BME280;49465;57.664;39.686;2023-05-17T05:07:49;101279.28;;;22.17;38.55
63343;BME280;49465;57.664;39.686;2023-05-17T05:10:15;101281.19;;;22.34;38.76
63343;BME280;49465;57.664;39.686;2023-05-17T05:12:47;101277.06;;;22.58;38.10
63343;BME280;49465;57.664;39.686;2023-05-17T05:15:19;101268.25;;;22.83;38.06
63343;BME280;49465;57.664;39.686;2023-05-17T05:17:46;101273.13;;;23.06;37.20
63343;BME280;49465;57.664;39.686;2023-05-17T05:20:15;101278.69;;;23.39;36.42
63343;BME280;49465;57.664;39.686;2023-05-17T05:22:42;101270.59;;;23.57;36.20
63343;BME280;49465;57.664;39.686;2023-05-17T05:25:21;101275.97;;;23.99;35.89
63343;BME280;49465;57.664;39.686;2023-05-17T05:27:50;101258.41;;;24.05;36.03
63343;BME280;49465;57.664;39.686;2023-05-17T05:30:17;101266.50;;;24.30;35.58
63343;BME280;49465;57.664;39.686;2023-05-17T05:32:53;101271.94;;;24.62;35.05
63343;BME280;49465;57.664;39.686;2023-05-17T05:35:30;101271.03;;;25.03;35.17
63343;BME280;49465;57.664;39.686;2023-05-17T05:38:00;101263.66;;;25.05;33.86
63343;BME280;49465;57.664;39.686;2023-05-17T05:40:26;101262.50;;;25.24;34.00
63343;BME280;49465;57.664;39.686;2023-05-17T05:42:53;101261.28;;;25.43;33.73
63343;BME280;49465;57.664;39.686;2023-05-17T05:45:22;101261.16;;;25.76;33.28
63343;BME280;49465;57.664;39.686;2023-05-17T05:48:01;101259.06;;;25.94;32.47
63343;BME280;49465;57.664;39.686;2023-05-17T05:50:33;101259.69;;;26.28;31.44
63343;BME280;49465;57.664;39.686;2023-05-17T05:53:00;101260.94;;;26.40;32.67
63343;BME280;49465;57.664;39.686;2023-05-17T05:55:27;101251.41;;;26.60;31.38
63343;BME280;49465;57.664;39.686;2023-05-17T05:57:53;101253.78;;;26.78;31.05
63343;BME280;49465;57.664;39.686;2023-05-17T06:00:23;101254.84;;;27.07;30.89
63343;BME280;49465;57.664;39.686;2023-05-17T06:02:53;101259.91;;;27.25;31.53
63343;BME280;49465;57.664;39.686;2023-05-17T06:05:25;101251.44;;;27.43;30.50
63343;BME280;49465;57.664;39.686;2023-05-17T06:07:54;101250.59;;;27.72;30.23
63343;BME280;49465;57.664;39.686;2023-05-17T06:10:20;101255.78;;;27.89;29.66
63343;BME280;49465;57.664;39.686;2023-05-17T06:12:56;101243.56;;;28.08;29.03
63343;BME280;49465;57.664;39.686;2023-05-17T06:15:22;101246.44;;;28.28;28.78
63343;BME280;49465;57.664;39.686;2023-05-17T06:17:52;101254.09;;;28.46;29.29
63343;BME280;49465;57.664;39.686;2023-05-17T06:20:18;101255.97;;;28.67;28.17
63343;BME280;49465;57.664;39.686;2023-05-17T06:22:47;101256.75;;;28.89;27.92
63343;BME280;49465;57.664;39.686;2023-05-17T06:25:16;101251.13;;;29.12;28.46
63343;BME280;49465;57.664;39.686;2023-05-17T06:27:42;101251.44;;;29.30;27.92
63343;BME280;49465;57.664;39.686;2023-05-17T06:30:09;101253.41;;;29.50;27.01
63343;BME280;49465;57.664;39.686;2023-05-17T06:32:38;101258.53;;;29.73;27.42
63343;BME280;49465;57.664;39.686;2023-05-17T06:35:07;101254.81;;;29.87;27.89
63343;BME280;49465;57.664;39.686;2023-05-17T06:37:36;101257.16;;;29.97;26.60
63343;BME280;49465;57.664;39.686;2023-05-17T06:40:06;101254.09;;;30.13;25.89
63343;BME280;49465;57.664;39.686;2023-05-17T06:42:33;101259.72;;;30.25;26.15
63343;BME280;49465;57.664;39.686;2023-05-17T06:45:02;101258.94;;;30.45;25.54
63343;BME280;49465;57.664;39.686;2023-05-17T06:47:31;101259.16;;;30.63;26.65
63343;BME280;49465;57.664;39.686;2023-05-17T06:50:01;101251.44;;;30.80;25.88
63343;BME280;49465;57.664;39.686;2023-05-17T06:52:33;101242.28;;;30.94;25.72
63343;BME280;49465;57.664;39.686;2023-05-17T06:55:03;101243.53;;;31.05;24.93
63343;BME280;49465;57.664;39.686;2023-05-17T06:57:29;101250.16;;;31.16;24.64
63343;BME280;49465;57.664;39.686;2023-05-17T06:59:55;101250.75;;;31.31;24.81
63343;BME280;49465;57.664;39.686;2023-05-17T07:02:24;101251.13;;;31.42;23.14
63343;BME280;49465;57.664;39.686;2023-05-17T07:04:51;101243.03;;;31.48;23.21
63343;BME280;49465;57.664;39.686;2023-05-17T07:07:27;101257.47;;;31.81;22.30
63343;BME280;49465;57.664;39.686;2023-05-17T07:10:02;101246.63;;;31.81;23.88
63343;BME280;49465;57.664;39.686;2023-05-17T07:12:39;101247.56;;;32.00;22.67
63343;BME280;49465;57.664;39.686;2023-05-17T07:15:09;101252.50;;;32.16;22.80
63343;BME280;49465;57.664;39.686;2023-05-17T07:17:38;101244.34;;;32.16;22.16
63343;BME280;49465;57.664;39.686;2023-05-17T07:20:08;101249.97;;;32.21;22.08
63343;BME280;49465;57.664;39.686;2023-05-17T07:22:37;101242.66;;;32.22;23.09
63343;BME280;49465;57.664;39.686;2023-05-17T07:25:07;101247.41;;;32.26;22.06
63343;BME280;49465;57.664;39.686;2023-05-17T07:27:34;101248.91;;;32.22;22.35
63343;BME280;49465;57.664;39.686;2023-05-17T07:30:09;101249.72;;;32.55;21.72
63343;BME280;49465;57.664;39.686;2023-05-17T07:32:39;101240.34;;;32.50;22.46
63343;BME280;49465;57.664;39.686;2023-05-17T07:35:14;101251.00;;;32.52;22.00
63343;BME280;49465;57.664;39.686;2023-05-17T07:37:43;101247.53;;;32.70;21.17
63343;BME280;49465;57.664;39.686;2023-05-17T07:40:13;101246.41;;;32.78;22.50
63343;BME280;49465;57.664;39.686;2023-05-17T07:42:40;101242.91;;;32.96;21.60
63343;BME280;49465;57.664;39.686;2023-05-17T07:45:09;101238.56;;;33.13;22.22
63343;BME280;49465;57.664;39.686;2023-05-17T07:47:35;101234.56;;;33.16;21.64
63343;BME280;49465;57.664;39.686;2023-05-17T07:50:04;101235.31;;;33.23;21.92
63343;BME280;49465;57.664;39.686;2023-05-17T07:52:31;101239.56;;;33.19;22.00
63343;BME280;49465;57.664;39.686;2023-05-17T07:55:03;101231.53;;;33.24;20.95
63343;BME280;49465;57.664;39.686;2023-05-17T07:57:34;101224.47;;;33.23;20.71
63343;BME280;49465;57.664;39.686;2023-05-17T08:00:05;101229.72;;;33.36;20.51
63343;BME280;49465;57.664;39.686;2023-05-17T08:02:42;101233.06;;;33.38;20.56
63343;BME280;49465;57.664;39.686;2023-05-17T08:05:12;101233.19;;;33.43;20.58
63343;BME280;49465;57.664;39.686;2023-05-17T08:07:41;101224.00;;;33.44;21.03
63343;BME280;49465;57.664;39.686;2023-05-17T08:10:07;101219.88;;;33.54;20.86
63343;BME280;49465;57.664;39.686;2023-05-17T08:12:36;101220.84;;;33.59;20.51
63343;BME280;49465;57.664;39.686;2023-05-17T08:15:05;101227.34;;;33.77;21.35
63343;BME280;49465;57.664;39.686;2023-05-17T08:17:32;101226.31;;;33.78;20.93
63343;BME280;49465;57.664;39.686;2023-05-17T08:20:01;101222.69;;;33.96;20.48
63343;BME280;49465;57.664;39.686;2023-05-17T08:22:30;101216.78;;;33.99;20.98
63343;BME280;49465;57.664;39.686;2023-05-17T08:24:56;101217.06;;;34.09;20.91
63343;BME280;49465;57.664;39.686;2023-05-17T08:27:23;101220.16;;;34.24;20.87
63343;BME280;49465;57.664;39.686;2023-05-17T08:29:54;101222.00;;;34.42;20.99
63343;BME280;49465;57.664;39.686;2023-05-17T08:32:23;101205.66;;;34.42;20.55
63343;BME280;49465;57.664;39.686;2023-05-17T08:34:50;101210.53;;;34.52;20.49
63343;BME280;49465;57.664;39.686;2023-05-17T08:37:19;101206.97;;;34.75;20.61
63343;BME280;49465;57.664;39.686;2023-05-17T08:39:46;101204.03;;;34.77;20.88
63343;BME280;49465;57.664;39.686;2023-05-17T08:42:20;101206.25;;;34.92;20.34
63343;BME280;49465;57.664;39.686;2023-05-17T08:44:47;101194.66;;;34.96;20.00
63343;BME280;49465;57.664;39.686;2023-05-17T08:47:15;101200.31;;;35.06;19.71
63343;BME280;49465;57.664;39.686;2023-05-17T08:49:53;101202.06;;;35.13;19.86
63343;BME280;49465;57.664;39.686;2023-05-17T08:52:24;101193.56;;;35.21;19.79
63343;BME280;49465;57.664;39.686;2023-05-17T08:54:52;101190.69;;;35.28;20.29
63343;BME280;49465;57.664;39.686;2023-05-17T08:57:19;101189.16;;;35.20;19.92
63343;BME280;49465;57.664;39.686;2023-05-17T08:59:50;101203.94;;;35.36;19.83
63343;BME280;49465;57.664;39.686;2023-05-17T09:02:18;101191.63;;;35.33;18.83
63343;BME280;49465;57.664;39.686;2023-05-17T09:04:45;101200.50;;;35.40;19.68
63343;BME280;49465;57.664;39.686;2023-05-17T09:07:12;101197.84;;;35.45;18.82
63343;BME280;49465;57.664;39.686;2023-05-17T09:09:41;101193.09;;;35.53;19.31
63343;BME280;49465;57.664;39.686;2023-05-17T09:12:07;101188.06;;;35.61;19.04
63343;BME280;49465;57.664;39.686;2023-05-17T09:14:34;101186.28;;;35.67;18.94
63343;BME280;49465;57.664;39.686;2023-05-17T09:17:01;101194.06;;;35.75;18.71
63343;BME280;49465;57.664;39.686;2023-05-17T09:19:29;101190.63;;;35.80;18.54
63343;BME280;49465;57.664;39.686;2023-05-17T09:22:02;101183.84;;;35.82;19.10
63343;BME280;49465;57.664;39.686;2023-05-17T09:24:34;101191.03;;;35.89;17.79
63343;BME280;49465;57.664;39.686;2023-05-17T09:27:02;101174.50;;;35.78;18.63
63343;BME280;49465;57.664;39.686;2023-05-17T09:29:31;101178.06;;;35.79;19.30
63343;BME280;49465;57.664;39.686;2023-05-17T09:32:13;101173.75;;;35.83;19.52
63343;BME280;49465;57.664;39.686;2023-05-17T09:34:40;101171.84;;;35.67;18.40
63343;BME280;49465;57.664;39.686;2023-05-17T09:37:17;101177.81;;;35.80;18.33
63343;BME280;49465;57.664;39.686;2023-05-17T09:39:45;101175.16;;;35.69;18.51
63343;BME280;49465;57.664;39.686;2023-05-17T09:42:13;101166.84;;;35.63;18.68
63343;BME280;49465;57.664;39.686;2023-05-17T09:44:46;101166.91;;;35.80;19.13
63343;BME280;49465;57.664;39.686;2023-05-17T09:47:26;101171.94;;;35.89;19.13
63343;BME280;49465;57.664;39.686;2023-05-17T09:49:57;101157.84;;;35.63;19.18
63343;BME280;49465;57.664;39.686;2023-05-17T09:52:26;101156.44;;;35.60;18.80
63343;BME280;49465;57.664;39.686;2023-05-17T09:55:00;101167.88;;;35.74;19.13
63343;BME280;49465;57.664;39.686;2023-05-17T09:57:28;101151.13;;;35.54;17.77
63343;BME280;49465;57.664;39.686;2023-05-17T10:00:02;101157.66;;;35.53;18.33
63343;BME280;49465;57.664;39.686;2023-05-17T10:02:35;101154.53;;;35.61;18.20
63343;BME280;49465;57.664;39.686;2023-05-17T10:05:04;101150.84;;;35.67;18.14
63343;BME280;49465;57.664;39.686;2023-05-17T10:07:34;101151.34;;;35.81;19.06
63343;BME280;49465;57.664;39.686;2023-05-17T10:10:02;101150.13;;;35.72;18.05
63343;BME280;49465;57.664;39.686;2023-05-17T10:12:28;101144.66;;;35.72;18.65
63343;BME280;49465;57.664;39.686;2023-05-17T10:15:00;101145.09;;;35.80;18.20
63343;BME280;49465;57.664;39.686;2023-05-17T10:17:29;101142.44;;;35.86;18.57
63343;BME280;49465;57.664;39.686;2023-05-17T10:20:10;101146.00;;;35.86;18.60
63343;BME280;49465;57.664;39.686;2023-05-17T10:22:46;101139.22;;;35.89;17.51
63343;BME280;49465;57.664;39.686;2023-05-17T10:25:16;101141.09;;;35.71;18.22
63343;BME280;49465;57.664;39.686;2023-05-17T10:27:45;101142.56;;;35.62;18.12
63343;BME280;49465;57.664;39.686;2023-05-17T10:30:14;101137.06;;;35.74;18.42
63343;BME280;49465;57.664;39.686;2023-05-17T10:32:47;101127.47;;;35.88;18.75
63343;BME280;49465;57.664;39.686;2023-05-17T10:35:15;101131.44;;;35.80;18.78
63343;BME280;49465;57.664;39.686;2023-05-17T10:37:43;101126.00;;;35.80;19.04
63343;BME280;49465;57.664;39.686;2023-05-17T10:40:09;101133.19;;;35.87;18.70
63343;BME280;49465;57.664;39.686;2023-05-17T10:42:41;101134.84;;;35.88;18.77
63343;BME280;49465;57.664;39.686;2023-05-17T10:45:08;101132.47;;;35.91;18.00
63343;BME280;49465;57.664;39.686;2023-05-17T10:47:39;101131.19;;;35.99;18.45
63343;BME280;49465;57.664;39.686;2023-05-17T10:50:14;101133.84;;;36.11;18.44
63343;BME280;49465;57.664;39.686;2023-05-17T10:52:50;101128.13;;;36.12;18.56
63343;BME280;49465;57.664;39.686;2023-05-17T10:55:25;101134.94;;;36.10;18.48
63343;BME280;49465;57.664;39.686;2023-05-17T10:58:19;101132.47;;;36.25;17.34
63343;BME280;49465;57.664;39.686;2023-05-17T11:00:49;101122.28;;;35.87;17.93
63343;BME280;49465;57.664;39.686;2023-05-17T11:03:28;101115.34;;;35.96;17.56
63343;BME280;49465;57.664;39.686;2023-05-17T11:06:14;101117.72;;;36.09;18.49
63343;BME280;49465;57.664;39.686;2023-05-17T11:09:06;101119.13;;;36.12;16.82
63343;BME280;49465;57.664;39.686;2023-05-17T11:11:35;101119.97;;;35.78;17.23
63343;BME280;49465;57.664;39.686;2023-05-17T11:14:03;101111.78;;;35.78;18.21
63343;BME280;49465;57.664;39.686;2023-05-17T11:16:37;101105.47;;;35.95;18.92
63343;BME280;49465;57.664;39.686;2023-05-17T11:19:11;101105.56;;;36.00;19.01
63343;BME280;49465;57.664;39.686;2023-05-17T11:21:49;101106.81;;;36.09;18.49
63343;BME280;49465;57.664;39.686;2023-05-17T11:24:24;101109.78;;;35.91;16.86
63343;BME280;49465;57.664;39.686;2023-05-17T11:26:54;101089.47;;;35.81;16.80
63343;BME280;49465;57.664;39.686;2023-05-17T11:29:27;101090.50;;;36.48;17.35
63343;BME280;49465;57.664;39.686;2023-05-17T11:31:55;101087.38;;;35.89;17.70
63343;BME280;49465;57.664;39.686;2023-05-17T11:34:22;101084.22;;;35.97;18.45
63343;BME280;49465;57.664;39.686;2023-05-17T11:36:51;101085.91;;;35.98;18.16
63343;BME280;49465;57.664;39.686;2023-05-17T11:39:22;101092.78;;;36.17;16.93
63343;BME280;49465;57.664;39.686;2023-05-17T11:41:53;101090.44;;;36.26;18.17
63343;BME280;49465;57.664;39.686;2023-05-17T11:44:32;101086.53;;;36.39;16.34
63343;BME280;49465;57.664;39.686;2023-05-17T11:47:07;101086.84;;;36.42;18.35
63343;BME280;49465;57.664;39.686;2023-05-17T11:49:37;101085.38;;;36.35;18.41
63343;BME280;49465;57.664;39.686;2023-05-17T11:52:06;101081.50;;;36.14;18.07
63343;BME280;49465;57.664;39.686;2023-05-17T11:54:33;101081.25;;;35.98;17.97
63343;BME280;49465;57.664;39.686;2023-05-17T11:57:00;101074.66;;;35.77;17.55
63343;BME280;49465;57.664;39.686;2023-05-17T11:59:36;101077.91;;;35.91;18.40
63343;BME280;49465;57.664;39.686;2023-05-17T12:02:26;101072.09;;;36.21;18.49
63343;BME280;49465;57.664;39.686;2023-05-17T12:04:55;101071.84;;;35.89;17.42
63343;BME280;49465;57.664;39.686;2023-05-17T12:07:24;101063.84;;;35.99;18.08
63343;BME280;49465;57.664;39.686;2023-05-17T12:09:51;101073.16;;;36.03;17.60
63343;BME280;49465;57.664;39.686;2023-05-17T12:12:18;101060.84;;;36.18;17.77
63343;BME280;49465;57.664;39.686;2023-05-17T12:14:49;101067.09;;;36.35;18.13
63343;BME280;49465;57.664;39.686;2023-05-17T12:17:30;101058.16;;;36.62;18.10
63343;BME280;49465;57.664;39.686;2023-05-17T12:20:08;101066.06;;;36.80;18.10
63343;BME280;49465;57.664;39.686;2023-05-17T12:22:50;101051.63;;;36.85;18.52
63343;BME280;49465;57.664;39.686;2023-05-17T12:25:23;101057.38;;;36.84;17.77
63343;BME280;49465;57.664;39.686;2023-05-17T12:28:15;101056.50;;;37.05;17.92
63343;BME280;49465;57.664;39.686;2023-05-17T12:30:44;101052.81;;;36.94;17.35
63343;BME280;49465;57.664;39.686;2023-05-17T12:33:10;101055.72;;;37.10;17.92
63343;BME280;49465;57.664;39.686;2023-05-17T12:35:37;101047.66;;;37.20;17.28
63343;BME280;49465;57.664;39.686;2023-05-17T12:38:08;101057.66;;;37.36;17.37
63343;BME280;49465;57.664;39.686;2023-05-17T12:40:38;101039.38;;;37.42;17.39
63343;BME280;49465;57.664;39.686;2023-05-17T12:43:05;101044.09;;;37.52;17.47
63343;BME280;49465;57.664;39.686;2023-05-17T12:45:32;101039.78;;;37.56;17.45
63343;BME280;49465;57.664;39.686;2023-05-17T12:47:59;101038.22;;;37.65;17.36
63343;BME280;49465;57.664;39.686;2023-05-17T12:50:29;101039.84;;;37.61;17.72
63343;BME280;49465;57.664;39.686;2023-05-17T12:52:59;101035.75;;;37.64;16.70
63343;BME280;49465;57.664;39.686;2023-05-17T12:55:36;101036.72;;;37.79;17.27
63343;BME280;49465;57.664;39.686;2023-05-17T12:58:03;101032.31;;;37.78;17.31
63343;BME280;49465;57.664;39.686;2023-05-17T13:00:32;101017.88;;;37.88;17.45
63343;BME280;49465;57.664;39.686;2023-05-17T13:02:59;101020.97;;;38.02;16.42
63343;BME280;49465;57.664;39.686;2023-05-17T13:05:26;101022.13;;;38.06;16.97
63343;BME280;49465;57.664;39.686;2023-05-17T13:07:53;101017.75;;;38.10;17.41
63343;BME280;49465;57.664;39.686;2023-05-17T13:10:22;101025.19;;;38.20;16.92
63343;BME280;49465;57.664;39.686;2023-05-17T13:13:00;101018.16;;;38.34;14.94